sensor_id;sensor_type;location;lat;lon;timestamp;P1;durP1;ratioP1;P2;durP2;ratioP2
5742;SDS011;2896;53.500;10.020;2023-11-21T00:01:11;26.17;;;13.90;;
5742;SDS011;2896;53.500;10.020;2023-11-21T00:03:38;27.30;;;14.60;;
5742;SDS011;2896;53.500;10.020;2023-11-21T00:06:07;24.87;;;13.10;;
5742;SDS011;2896;53.500;10.020;2023-11-21T00:08:34;23.97;;;13.27;;
5742;SDS011;2896;53.500;10.020;2023-11-21T00:11:01;25.00;;;13.03;;
5742;SDS011;2896;53.500;10.020;2023-11-21T00:13:30;21.50;;;12.97;;
5742;SDS011;2896;53.500;10.020;2023-11-21T00:15:56;25.00;;;13.07;;
5742;SDS011;2896;53.500;10.020;2023-11-21T00:18:23;22.50;;;13.63;;
5742;SDS011;2896;53.500;10.020;2023-11-21T00:20:50;20.97;;;11.70;;
5742;SDS011;2896;53.500;10.020;2023-11-21T00:23:18;22.80;;;13.37;;
5742;SDS011;2896;53.500;10.020;2023-11-21T00:25:45;18.73;;;11.93;;
5742;SDS011;2896;53.500;10.020;2023-11-21T00:28:11;19.67;;;12.40;;
5742;SDS011;2896;53.500;10.020;2023-11-21T00:30:38;18.57;;;12.50;;
5742;SDS011;2896;53.500;10.020;2023-11-21T00:33:04;17.17;;;11.90;;
5742;SDS011;2896;53.500;10.020;2023-11-21T00:35:31;15.17;;;10.87;;
5742;SDS011;2896;53.500;10.020;2023-11-21T00:37:58;18.30;;;11.77;;
5742;SDS011;2896;53.500;10.020;2023-11-21T00:40:26;20.80;;;12.07;;
5742;SDS011;2896;53.500;10.020;2023-11-21T00:42:52;20.37;;;12.73;;
5742;SDS011;2896;53.500;10.020;2023-11-21T00:45:21;21.93;;;13.00;;
5742;SDS011;2896;53.500;10.020;2023-11-21T00:47:47;22.13;;;12.70;;
5742;SDS011;2896;53.500;10.020;2023-11-21T00:50:14;24.90;;;12.93;;
5742;SDS011;2896;53.500;10.020;2023-11-21T00:52:41;22.90;;;14.20;;
5742;SDS011;2896;53.500;10.020;2023-11-21T00:55:08;21.50;;;13.53;;
5742;SDS011;2896;53.500;10.020;2023-11-21T00:57:38;32.23;;;15.23;;
5742;SDS011;2896;53.500;10.020;2023-11-21T01:00:05;21.40;;;13.40;;
5742;SDS011;2896;53.500;10.020;2023-11-21T01:02:34;28.10;;;13.97;;
5742;SDS011;2896;53.500;10.020;2023-11-21T01:05:01;25.67;;;13.03;;
5742;SDS011;2896;53.500;10.020;2023-11-21T01:07:28;20.50;;;13.27;;
5742;SDS011;2896;53.500;10.020;2023-11-21T01:09:55;22.57;;;14.87;;
5742;SDS011;2896;53.500;10.020;2023-11-21T01:12:22;20.90;;;12.70;;
5742;SDS011;2896;53.500;10.020;2023-11-21T01:14:51;25.63;;;14.57;;
5742;SDS011;2896;53.500;10.020;2023-11-21T01:17:17;22.47;;;13.93;;
5742;SDS011;2896;53.500;10.020;2023-11-21T01:19:44;26.33;;;15.73;;
5742;SDS011;2896;53.500;10.020;2023-11-21T01:22:11;24.50;;;15.03;;
5742;SDS011;2896;53.500;10.020;2023-11-21T01:24:37;25.80;;;15.83;;
5742;SDS011;2896;53.500;10.020;2023-11-21T01:27:04;27.60;;;16.00;;
5742;SDS011;2896;53.500;10.020;2023-11-21T01:29:32;28.33;;;14.43;;
5742;SDS011;2896;53.500;10.020;2023-11-21T01:32:01;20.93;;;13.53;;
5742;SDS011;2896;53.500;10.020;2023-11-21T01:34:29;25.03;;;15.20;;
5742;SDS011;2896;53.500;10.020;2023-11-21T01:36:55;22.23;;;14.07;;
5742;SDS011;2896;53.500;10.020;2023-11-21T01:39:22;30.57;;;15.27;;
5742;SDS011;2896;53.500;10.020;2023-11-21T01:41:49;23.90;;;14.27;;
5742;SDS011;2896;53.500;10.020;2023-11-21T01:44:17;21.97;;;15.10;;
5742;SDS011;2896;53.500;10.020;2023-11-21T01:46:44;25.10;;;14.87;;
5742;SDS011;2896;53.500;10.020;2023-11-21T01:49:12;18.50;;;12.93;;
5742;SDS011;2896;53.500;10.020;2023-11-21T01:54:08;19.20;;;12.60;;
5742;SDS011;2896;53.500;10.020;2023-11-21T01:56:36;16.20;;;11.63;;
5742;SDS011;2896;53.500;10.020;2023-11-21T01:59:04;18.80;;;11.60;;
5742;SDS011;2896;53.500;10.020;2023-11-21T02:01:32;16.97;;;11.50;;
5742;SDS011;2896;53.500;10.020;2023-11-21T02:03:58;19.00;;;11.97;;
5742;SDS011;2896;53.500;10.020;2023-11-21T02:06:27;20.43;;;12.53;;
5742;SDS011;2896;53.500;10.020;2023-11-21T02:08:56;17.10;;;12.03;;
5742;SDS011;2896;53.500;10.020;2023-11-21T02:11:24;16.97;;;11.13;;
5742;SDS011;2896;53.500;10.020;2023-11-21T02:13:50;18.83;;;10.93;;
5742;SDS011;2896;53.500;10.020;2023-11-21T02:16:19;15.00;;;10.67;;
5742;SDS011;2896;53.500;10.020;2023-11-21T02:18:46;17.43;;;10.77;;
5742;SDS011;2896;53.500;10.020;2023-11-21T02:21:13;14.87;;;10.63;;
5742;SDS011;2896;53.500;10.020;2023-11-21T02:23:41;13.90;;;9.20;;
5742;SDS011;2896;53.500;10.020;2023-11-21T02:26:09;17.90;;;11.30;;
5742;SDS011;2896;53.500;10.020;2023-11-21T02:28:36;13.20;;;10.57;;
5742;SDS011;2896;53.500;10.020;2023-11-21T02:31:04;17.80;;;9.93;;
5742;SDS011;2896;53.500;10.020;2023-11-21T02:33:29;13.60;;;10.50;;
5742;SDS011;2896;53.500;10.020;2023-11-21T02:35:58;11.80;;;9.20;;
5742;SDS011;2896;53.500;10.020;2023-11-21T02:38:25;11.07;;;7.90;;
5742;SDS011;2896;53.500;10.020;2023-11-21T02:40:53;12.17;;;9.20;;
5742;SDS011;2896;53.500;10.020;2023-11-21T02:43:20;11.57;;;9.00;;
5742;SDS011;2896;53.500;10.020;2023-11-21T02:45:46;10.77;;;8.73;;
5742;SDS011;2896;53.500;10.020;2023-11-21T02:48:13;13.87;;;8.70;;
5742;SDS011;2896;53.500;10.020;2023-11-21T02:50:39;10.57;;;8.70;;
5742;SDS011;2896;53.500;10.020;2023-11-21T02:53:08;9.50;;;8.27;;
5742;SDS011;2896;53.500;10.020;2023-11-21T02:55:35;12.57;;;8.43;;
5742;SDS011;2896;53.500;10.020;2023-11-21T02:58:03;12.93;;;9.03;;
5742;SDS011;2896;53.500;10.020;2023-11-21T03:00:31;10.07;;;8.67;;
5742;SDS011;2896;53.500;10.020;2023-11-21T03:02:57;10.47;;;8.60;;
5742;SDS011;2896;53.500;10.020;2023-11-21T03:05:25;11.37;;;9.43;;
5742;SDS011;2896;53.500;10.020;2023-11-21T03:07:54;15.30;;;9.90;;
5742;SDS011;2896;53.500;10.020;2023-11-21T03:10:20;13.80;;;9.53;;
5742;SDS011;2896;53.500;10.020;2023-11-21T03:12:48;13.33;;;8.67;;
5742;SDS011;2896;53.500;10.020;2023-11-21T03:15:16;14.20;;;8.97;;
5742;SDS011;2896;53.500;10.020;2023-11-21T03:17:43;12.80;;;9.37;;
5742;SDS011;2896;53.500;10.020;2023-11-21T03:20:10;12.17;;;9.33;;
5742;SDS011;2896;53.500;10.020;2023-11-21T03:22:38;13.53;;;9.10;;
5742;SDS011;2896;53.500;10.020;2023-11-21T03:25:05;10.67;;;8.70;;
5742;SDS011;2896;53.500;10.020;2023-11-21T03:27:35;12.80;;;9.57;;
5742;SDS011;2896;53.500;10.020;2023-11-21T03:30:03;10.97;;;8.93;;
5742;SDS011;2896;53.500;10.020;2023-11-21T03:32:33;9.20;;;8.17;;
5742;SDS011;2896;53.500;10.020;2023-11-21T03:35:00;12.93;;;9.00;;
5742;SDS011;2896;53.500;10.020;2023-11-21T03:37:27;12.57;;;9.80;;
5742;SDS011;2896;53.500;10.020;2023-11-21T03:39:54;14.80;;;9.90;;
5742;SDS011;2896;53.500;10.020;2023-11-21T03:42:21;11.53;;;9.40;;
5742;SDS011;2896;53.500;10.020;2023-11-21T03:44:48;15.07;;;10.30;;
5742;SDS011;2896;53.500;10.020;2023-11-21T03:47:15;14.40;;;10.50;;
5742;SDS011;2896;53.500;10.020;2023-11-21T03:49:43;12.23;;;9.27;;
5742;SDS011;2896;53.500;10.020;2023-11-21T03:52:09;13.07;;;9.40;;
5742;SDS011;2896;53.500;10.020;2023-11-21T03:54:36;15.97;;;10.33;;
5742;SDS011;2896;53.500;10.020;2023-11-21T03:57:04;13.03;;;9.07;;
5742;SDS011;2896;53.500;10.020;2023-11-21T03:59:30;15.10;;;9.47;;
5742;SDS011;2896;53.500;10.020;2023-11-21T04:01:57;14.20;;;10.07;;
5742;SDS011;2896;53.500;10.020;2023-11-21T04:04:24;13.50;;;9.20;;
5742;SDS011;2896;53.500;10.020;2023-11-21T04:06:52;13.43;;;10.10;;
5742;SDS011;2896;53.500;10.020;2023-11-21T04:09:21;13.90;;;9.50;;
5742;SDS011;2896;53.500;10.020;2023-11-21T04:11:50;21.67;;;9.77;;
5742;SDS011;2896;53.500;10.020;2023-11-21T04:14:16;16.83;;;9.83;;
5742;SDS011;2896;53.500;10.020;2023-11-21T04:16:43;16.17;;;10.70;;
5742;SDS011;2896;53.500;10.020;2023-11-21T04:19:10;13.37;;;10.10;;
5742;SDS011;2896;53.500;10.020;2023-11-21T04:21:39;14.43;;;10.90;;
5742;SDS011;2896;53.500;10.020;2023-11-21T04:24:07;14.23;;;10.83;;
5742;SDS011;2896;53.500;10.020;2023-11-21T04:26:34;14.83;;;11.27;;
5742;SDS011;2896;53.500;10.020;2023-11-21T04:29:01;18.57;;;10.27;;
5742;SDS011;2896;53.500;10.020;2023-11-21T04:31:28;14.30;;;10.23;;
5742;SDS011;2896;53.500;10.020;2023-11-21T04:33:54;13.00;;;10.30;;
5742;SDS011;2896;53.500;10.020;2023-11-21T04:36:21;13.07;;;10.27;;
5742;SDS011;2896;53.500;10.020;2023-11-21T04:38:48;24.03;;;11.10;;
5742;SDS011;2896;53.500;10.020;2023-11-21T04:41:16;16.23;;;10.30;;
5742;SDS011;2896;53.500;10.020;2023-11-21T04:43:43;17.30;;;11.20;;
5742;SDS011;2896;53.500;10.020;2023-11-21T04:46:09;21.20;;;11.10;;
5742;SDS011;2896;53.500;10.020;2023-11-21T04:48:36;14.17;;;10.70;;
5742;SDS011;2896;53.500;10.020;2023-11-21T04:51:03;12.33;;;9.73;;
5742;SDS011;2896;53.500;10.020;2023-11-21T04:53:30;21.23;;;10.60;;
5742;SDS011;2896;53.500;10.020;2023-11-21T04:55:57;16.20;;;10.03;;
5742;SDS011;2896;53.500;10.020;2023-11-21T04:58:25;14.00;;;9.30;;
5742;SDS011;2896;53.500;10.020;2023-11-21T05:00:51;15.20;;;10.43;;
5742;SDS011;2896;53.500;10.020;2023-11-21T05:03:18;15.87;;;9.97;;
5742;SDS011;2896;53.500;10.020;2023-11-21T05:05:45;12.97;;;10.37;;
5742;SDS011;2896;53.500;10.020;2023-11-21T05:08:12;14.70;;;10.87;;
5742;SDS011;2896;53.500;10.020;2023-11-21T05:10:39;16.60;;;11.33;;
5742;SDS011;2896;53.500;10.020;2023-11-21T05:13:06;13.40;;;10.03;;
5742;SDS011;2896;53.500;10.020;2023-11-21T05:15:36;15.80;;;11.30;;
5742;SDS011;2896;53.500;10.020;2023-11-21T05:18:03;12.63;;;10.30;;
5742;SDS011;2896;53.500;10.020;2023-11-21T05:20:30;14.37;;;10.67;;
5742;SDS011;2896;53.500;10.020;2023-11-21T05:22:58;14.57;;;10.70;;
5742;SDS011;2896;53.500;10.020;2023-11-21T05:25:24;15.57;;;10.40;;
5742;SDS011;2896;53.500;10.020;2023-11-21T05:27:51;12.90;;;9.60;;
5742;SDS011;2896;53.500;10.020;2023-11-21T05:30:21;16.77;;;11.80;;
5742;SDS011;2896;53.500;10.020;2023-11-21T05:32:49;14.10;;;11.00;;
5742;SDS011;2896;53.500;10.020;2023-11-21T05:35:16;16.47;;;12.33;;
5742;SDS011;2896;53.500;10.020;2023-11-21T05:37:43;16.83;;;10.93;;
5742;SDS011;2896;53.500;10.020;2023-11-21T05:40:11;15.90;;;10.70;;
5742;SDS011;2896;53.500;10.020;2023-11-21T05:42:38;18.87;;;10.90;;
5742;SDS011;2896;53.500;10.020;2023-11-21T05:45:06;18.20;;;11.03;;
5742;SDS011;2896;53.500;10.020;2023-11-21T05:47:36;17.37;;;11.63;;
5742;SDS011;2896;53.500;10.020;2023-11-21T05:50:06;14.40;;;10.77;;
5742;SDS011;2896;53.500;10.020;2023-11-21T05:52:35;16.30;;;11.20;;
5742;SDS011;2896;53.500;10.020;2023-11-21T05:55:02;17.03;;;11.50;;
5742;SDS011;2896;53.500;10.020;2023-11-21T05:57:32;16.77;;;12.20;;
5742;SDS011;2896;53.500;10.020;2023-11-21T05:59:59;17.33;;;11.93;;
5742;SDS011;2896;53.500;10.020;2023-11-21T06:02:28;17.67;;;10.60;;
5742;SDS011;2896;53.500;10.020;2023-11-21T06:04:55;16.80;;;10.80;;
5742;SDS011;2896;53.500;10.020;2023-11-21T06:07:23;16.00;;;10.93;;
5742;SDS011;2896;53.500;10.020;2023-11-21T06:09:50;17.10;;;11.67;;
5742;SDS011;2896;53.500;10.020;2023-11-21T06:12:16;14.13;;;10.80;;
5742;SDS011;2896;53.500;10.020;2023-11-21T06:14:45;15.53;;;10.87;;
5742;SDS011;2896;53.500;10.020;2023-11-21T06:17:13;15.43;;;11.07;;
5742;SDS011;2896;53.500;10.020;2023-11-21T06:19:39;15.47;;;11.23;;
5742;SDS011;2896;53.500;10.020;2023-11-21T06:22:06;18.30;;;11.20;;
5742;SDS011;2896;53.500;10.020;2023-11-21T06:24:34;17.83;;;10.73;;
5742;SDS011;2896;53.500;10.020;2023-11-21T06:27:03;14.30;;;10.60;;
5742;SDS011;2896;53.500;10.020;2023-11-21T06:29:29;15.10;;;10.70;;
5742;SDS011;2896;53.500;10.020;2023-11-21T06:31:56;14.07;;;10.30;;
5742;SDS011;2896;53.500;10.020;2023-11-21T06:34:23;13.27;;;10.23;;
5742;SDS011;2896;53.500;10.020;2023-11-21T06:36:50;16.03;;;11.03;;
5742;SDS011;2896;53.500;10.020;2023-11-21T06:39:17;16.40;;;11.30;;
5742;SDS011;2896;53.500;10.020;2023-11-21T06:41:46;17.40;;;11.03;;
5742;SDS011;2896;53.500;10.020;2023-11-21T06:44:13;14.77;;;11.67;;
5742;SDS011;2896;53.500;10.020;2023-11-21T06:46:40;17.17;;;10.30;;
5742;SDS011;2896;53.500;10.020;2023-11-21T06:49:07;15.27;;;10.83;;
5742;SDS011;2896;53.500;10.020;2023-11-21T06:51:34;13.30;;;10.60;;
5742;SDS011;2896;53.500;10.020;2023-11-21T06:54:01;23.97;;;11.67;;
5742;SDS011;2896;53.500;10.020;2023-11-21T06:56:27;16.30;;;10.80;;
5742;SDS011;2896;53.500;10.020;2023-11-21T06:58:55;16.70;;;10.53;;
5742;SDS011;2896;53.500;10.020;2023-11-21T07:01:22;17.87;;;11.80;;
5742;SDS011;2896;53.500;10.020;2023-11-21T07:03:49;18.20;;;11.17;;
5742;SDS011;2896;53.500;10.020;2023-11-21T07:06:16;20.50;;;10.40;;
5742;SDS011;2896;53.500;10.020;2023-11-21T07:08:43;18.37;;;11.67;;
5742;SDS011;2896;53.500;10.020;2023-11-21T07:11:09;14.13;;;10.57;;
5742;SDS011;2896;53.500;10.020;2023-11-21T07:13:37;18.73;;;10.50;;
5742;SDS011;2896;53.500;10.020;2023-11-21T07:16:05;16.33;;;11.50;;
5742;SDS011;2896;53.500;10.020;2023-11-21T07:18:32;25.10;;;12.80;;
5742;SDS011;2896;53.500;10.020;2023-11-21T07:20:59;17.10;;;11.57;;
5742;SDS011;2896;53.500;10.020;2023-11-21T07:23:25;18.23;;;11.30;;
5742;SDS011;2896;53.500;10.020;2023-11-21T07:25:52;19.20;;;11.00;;
5742;SDS011;2896;53.500;10.020;2023-11-21T07:28:19;20.77;;;12.50;;
5742;SDS011;2896;53.500;10.020;2023-11-21T07:30:45;17.80;;;11.77;;
5742;SDS011;2896;53.500;10.020;2023-11-21T07:33:14;16.47;;;10.90;;
5742;SDS011;2896;53.500;10.020;2023-11-21T07:35:41;15.10;;;11.87;;
5742;SDS011;2896;53.500;10.020;2023-11-21T07:38:07;17.53;;;11.23;;
5742;SDS011;2896;53.500;10.020;2023-11-21T07:40:34;15.53;;;11.40;;
5742;SDS011;2896;53.500;10.020;2023-11-21T07:43:01;16.30;;;11.50;;
5742;SDS011;2896;53.500;10.020;2023-11-21T07:45:28;16.87;;;11.30;;
5742;SDS011;2896;53.500;10.020;2023-11-21T07:47:55;15.20;;;11.40;;
5742;SDS011;2896;53.500;10.020;2023-11-21T07:50:23;13.00;;;10.23;;
5742;SDS011;2896;53.500;10.020;2023-11-21T07:52:49;13.63;;;10.43;;
5742;SDS011;2896;53.500;10.020;2023-11-21T07:55:16;18.67;;;11.97;;
5742;SDS011;2896;53.500;10.020;2023-11-21T07:57:43;13.27;;;10.07;;
5742;SDS011;2896;53.500;10.020;2023-11-21T08:00:10;15.33;;;10.63;;
5742;SDS011;2896;53.500;10.020;2023-11-21T08:02:37;13.80;;;10.30;;
5742;SDS011;2896;53.500;10.020;2023-11-21T08:05:07;15.83;;;11.43;;
5742;SDS011;2896;53.500;10.020;2023-11-21T08:07:35;16.77;;;10.33;;
5742;SDS011;2896;53.500;10.020;2023-11-21T08:10:02;10.63;;;9.53;;
5742;SDS011;2896;53.500;10.020;2023-11-21T08:12:30;14.83;;;9.40;;
5742;SDS011;2896;53.500;10.020;2023-11-21T08:14:56;10.53;;;9.40;;
5742;SDS011;2896;53.500;10.020;2023-11-21T08:17:23;13.30;;;8.23;;
5742;SDS011;2896;53.500;10.020;2023-11-21T08:19:50;12.53;;;8.97;;
5742;SDS011;2896;53.500;10.020;2023-11-21T08:22:17;9.60;;;8.60;;
5742;SDS011;2896;53.500;10.020;2023-11-21T08:24:45;9.03;;;8.07;;
5742;SDS011;2896;53.500;10.020;2023-11-21T08:27:12;11.47;;;7.87;;
5742;SDS011;2896;53.500;10.020;2023-11-21T08:29:40;14.97;;;8.70;;
5742;SDS011;2896;53.500;10.020;2023-11-21T08:32:07;12.50;;;7.80;;
5742;SDS011;2896;53.500;10.020;2023-11-21T08:34:34;10.77;;;7.13;;
5742;SDS011;2896;53.500;10.020;2023-11-21T08:37:01;11.00;;;7.23;;
5742;SDS011;2896;53.500;10.020;2023-11-21T08:39:28;15.23;;;7.47;;
5742;SDS011;2896;53.500;10.020;2023-11-21T08:41:56;13.80;;;7.90;;
5742;SDS011;2896;53.500;10.020;2023-11-21T08:44:23;8.93;;;7.20;;
5742;SDS011;2896;53.500;10.020;2023-11-21T08:46:50;10.67;;;7.10;;
5742;SDS011;2896;53.500;10.020;2023-11-21T08:49:16;8.80;;;6.97;;
5742;SDS011;2896;53.500;10.020;2023-11-21T08:51:44;7.03;;;6.33;;
5742;SDS011;2896;53.500;10.020;2023-11-21T08:54:11;8.70;;;7.07;;
5742;SDS011;2896;53.500;10.020;2023-11-21T08:56:37;8.90;;;6.70;;
5742;SDS011;2896;53.500;10.020;2023-11-21T08:59:05;13.60;;;6.63;;
5742;SDS011;2896;53.500;10.020;2023-11-21T09:01:32;6.47;;;5.67;;
5742;SDS011;2896;53.500;10.020;2023-11-21T09:03:59;7.50;;;5.90;;
5742;SDS011;2896;53.500;10.020;2023-11-21T09:08:57;7.23;;;6.50;;
5742;SDS011;2896;53.500;10.020;2023-11-21T09:11:24;7.03;;;6.23;;
5742;SDS011;2896;53.500;10.020;2023-11-21T09:13:56;7.67;;;6.90;;
5742;SDS011;2896;53.500;10.020;2023-11-21T09:16:24;11.47;;;7.60;;
5742;SDS011;2896;53.500;10.020;2023-11-21T09:18:51;7.07;;;5.80;;
5742;SDS011;2896;53.500;10.020;2023-11-21T09:21:18;6.10;;;5.60;;
5742;SDS011;2896;53.500;10.020;2023-11-21T09:23:44;7.30;;;5.40;;
5742;SDS011;2896;53.500;10.020;2023-11-21T09:26:11;12.60;;;6.57;;
5742;SDS011;2896;53.500;10.020;2023-11-21T09:28:39;8.40;;;5.53;;
5742;SDS011;2896;53.500;10.020;2023-11-21T09:31:08;7.20;;;6.07;;
5742;SDS011;2896;53.500;10.020;2023-11-21T09:33:36;13.43;;;5.73;;
5742;SDS011;2896;53.500;10.020;2023-11-21T09:36:03;7.03;;;6.37;;
5742;SDS011;2896;53.500;10.020;2023-11-21T09:38:30;5.30;;;4.90;;
5742;SDS011;2896;53.500;10.020;2023-11-21T09:40:57;5.80;;;5.30;;
5742;SDS011;2896;53.500;10.020;2023-11-21T09:43:25;7.60;;;5.63;;
5742;SDS011;2896;53.500;10.020;2023-11-21T09:45:56;7.67;;;5.70;;
5742;SDS011;2896;53.500;10.020;2023-11-21T09:48:27;7.73;;;5.40;;
5742;SDS011;2896;53.500;10.020;2023-11-21T09:50:58;7.10;;;4.90;;
5742;SDS011;2896;53.500;10.020;2023-11-21T09:53:28;5.90;;;5.30;;
5742;SDS011;2896;53.500;10.020;2023-11-21T09:55:58;7.20;;;4.93;;
5742;SDS011;2896;53.500;10.020;2023-11-21T09:58:27;4.93;;;4.53;;
5742;SDS011;2896;53.500;10.020;2023-11-21T10:00:55;8.30;;;5.20;;
5742;SDS011;2896;53.500;10.020;2023-11-21T10:03:25;7.07;;;5.60;;
5742;SDS011;2896;53.500;10.020;2023-11-21T10:05:51;6.23;;;4.97;;
5742;SDS011;2896;53.500;10.020;2023-11-21T10:08:22;6.10;;;5.50;;
5742;SDS011;2896;53.500;10.020;2023-11-21T10:10:53;5.63;;;4.97;;
5742;SDS011;2896;53.500;10.020;2023-11-21T10:13:21;5.50;;;5.00;;
5742;SDS011;2896;53.500;10.020;2023-11-21T10:15:49;5.60;;;4.70;;
5742;SDS011;2896;53.500;10.020;2023-11-21T10:18:17;5.20;;;4.70;;
5742;SDS011;2896;53.500;10.020;2023-11-21T10:20:45;4.77;;;4.40;;
5742;SDS011;2896;53.500;10.020;2023-11-21T10:23:16;5.33;;;4.83;;
5742;SDS011;2896;53.500;10.020;2023-11-21T10:25:45;5.63;;;5.23;;
5742;SDS011;2896;53.500;10.020;2023-11-21T10:28:12;4.80;;;4.33;;
5742;SDS011;2896;53.500;10.020;2023-11-21T10:30:39;6.43;;;4.70;;
5742;SDS011;2896;53.500;10.020;2023-11-21T10:33:06;5.77;;;5.07;;
5742;SDS011;2896;53.500;10.020;2023-11-21T10:35:42;6.50;;;4.67;;
5742;SDS011;2896;53.500;10.020;2023-11-21T10:38:13;5.23;;;4.80;;
5742;SDS011;2896;53.500;10.020;2023-11-21T10:40:40;8.10;;;4.43;;
5742;SDS011;2896;53.500;10.020;2023-11-21T10:43:11;5.57;;;5.17;;
5742;SDS011;2896;53.500;10.020;2023-11-21T10:45:38;5.77;;;5.23;;
5742;SDS011;2896;53.500;10.020;2023-11-21T10:48:05;5.13;;;4.63;;
5742;SDS011;2896;53.500;10.020;2023-11-21T10:50:34;5.83;;;5.37;;
5742;SDS011;2896;53.500;10.020;2023-11-21T10:53:01;5.77;;;5.27;;
5742;SDS011;2896;53.500;10.020;2023-11-21T10:55:28;5.43;;;4.93;;
5742;SDS011;2896;53.500;10.020;2023-11-21T10:57:58;6.63;;;4.90;;
5742;SDS011;2896;53.500;10.020;2023-11-21T11:00:28;7.73;;;5.90;;
5742;SDS011;2896;53.500;10.020;2023-11-21T11:02:55;8.33;;;5.70;;
5742;SDS011;2896;53.500;10.020;2023-11-21T11:05:24;17.63;;;7.20;;
5742;SDS011;2896;53.500;10.020;2023-11-21T11:07:54;6.10;;;5.50;;
5742;SDS011;2896;53.500;10.020;2023-11-21T11:10:25;5.67;;;4.77;;
5742;SDS011;2896;53.500;10.020;2023-11-21T11:12:53;4.83;;;4.43;;
5742;SDS011;2896;53.500;10.020;2023-11-21T11:15:20;4.90;;;4.50;;
5742;SDS011;2896;53.500;10.020;2023-11-21T11:17:49;4.10;;;3.80;;
5742;SDS011;2896;53.500;10.020;2023-11-21T11:20:16;4.63;;;4.13;;
5742;SDS011;2896;53.500;10.020;2023-11-21T11:22:47;5.00;;;4.60;;
5742;SDS011;2896;53.500;10.020;2023-11-21T11:25:30;4.80;;;4.40;;
5742;SDS011;2896;53.500;10.020;2023-11-21T11:28:10;4.73;;;4.30;;
5742;SDS011;2896;53.500;10.020;2023-11-21T11:30:41;5.07;;;4.63;;
5742;SDS011;2896;53.500;10.020;2023-11-21T11:33:21;5.13;;;4.63;;
5742;SDS011;2896;53.500;10.020;2023-11-21T11:35:57;7.87;;;4.90;;
5742;SDS011;2896;53.500;10.020;2023-11-21T11:38:31;4.90;;;4.40;;
5742;SDS011;2896;53.500;10.020;2023-11-21T11:41:00;4.17;;;3.93;;
5742;SDS011;2896;53.500;10.020;2023-11-21T11:43:28;10.43;;;4.37;;
5742;SDS011;2896;53.500;10.020;2023-11-21T11:45:57;8.57;;;4.30;;
5742;SDS011;2896;53.500;10.020;2023-11-21T11:48:29;4.43;;;4.03;;
5742;SDS011;2896;53.500;10.020;2023-11-21T11:51:00;3.70;;;3.50;;
5742;SDS011;2896;53.500;10.020;2023-11-21T11:53:32;4.50;;;4.10;;
5742;SDS011;2896;53.500;10.020;2023-11-21T11:58:59;4.77;;;4.20;;
5742;SDS011;2896;53.500;10.020;2023-11-21T12:01:30;4.00;;;3.70;;
5742;SDS011;2896;53.500;10.020;2023-11-21T12:06:56;6.40;;;4.07;;
5742;SDS011;2896;53.500;10.020;2023-11-21T12:09:27;7.33;;;3.70;;
5742;SDS011;2896;53.500;10.020;2023-11-21T12:11:55;5.30;;;4.80;;
5742;SDS011;2896;53.500;10.020;2023-11-21T12:14:22;8.93;;;4.40;;
5742;SDS011;2896;53.500;10.020;2023-11-21T12:16:49;4.67;;;3.37;;
5742;SDS011;2896;53.500;10.020;2023-11-21T12:19:16;4.30;;;4.00;;
5742;SDS011;2896;53.500;10.020;2023-11-21T12:21:44;4.00;;;3.80;;
5742;SDS011;2896;53.500;10.020;2023-11-21T12:24:11;4.80;;;4.20;;
5742;SDS011;2896;53.500;10.020;2023-11-21T12:26:38;4.30;;;4.00;;
5742;SDS011;2896;53.500;10.020;2023-11-21T12:29:05;4.13;;;3.80;;
5742;SDS011;2896;53.500;10.020;2023-11-21T12:31:33;5.23;;;4.70;;
5742;SDS011;2896;53.500;10.020;2023-11-21T12:34:01;5.87;;;4.80;;
5742;SDS011;2896;53.500;10.020;2023-11-21T12:36:28;5.90;;;5.30;;
5742;SDS011;2896;53.500;10.020;2023-11-21T12:38:57;5.07;;;4.57;;
5742;SDS011;2896;53.500;10.020;2023-11-21T12:41:23;7.47;;;4.90;;
5742;SDS011;2896;53.500;10.020;2023-11-21T12:43:50;4.40;;;4.10;;
5742;SDS011;2896;53.500;10.020;2023-11-21T12:46:17;4.03;;;3.63;;
5742;SDS011;2896;53.500;10.020;2023-11-21T12:48:45;5.67;;;3.93;;
5742;SDS011;2896;53.500;10.020;2023-11-21T12:51:12;4.13;;;3.83;;
5742;SDS011;2896;53.500;10.020;2023-11-21T12:53:41;7.93;;;3.73;;
5742;SDS011;2896;53.500;10.020;2023-11-21T12:56:10;4.37;;;4.00;;
5742;SDS011;2896;53.500;10.020;2023-11-21T12:58:38;4.70;;;3.70;;
5742;SDS011;2896;53.500;10.020;2023-11-21T13:01:06;5.40;;;4.70;;
5742;SDS011;2896;53.500;10.020;2023-11-21T13:03:37;4.30;;;4.00;;
5742;SDS011;2896;53.500;10.020;2023-11-21T13:06:05;4.67;;;4.27;;
5742;SDS011;2896;53.500;10.020;2023-11-21T13:08:33;4.43;;;4.03;;
5742;SDS011;2896;53.500;10.020;2023-11-21T13:11:00;7.90;;;4.00;;
5742;SDS011;2896;53.500;10.020;2023-11-21T13:13:29;7.93;;;5.07;;
5742;SDS011;2896;53.500;10.020;2023-11-21T13:15:56;4.37;;;4.07;;
5742;SDS011;2896;53.500;10.020;2023-11-21T13:18:27;5.30;;;4.87;;
5742;SDS011;2896;53.500;10.020;2023-11-21T13:20:56;4.27;;;3.93;;
5742;SDS011;2896;53.500;10.020;2023-11-21T13:23:24;4.27;;;3.97;;
5742;SDS011;2896;53.500;10.020;2023-11-21T13:25:51;4.00;;;3.50;;
5742;SDS011;2896;53.500;10.020;2023-11-21T13:28:18;6.40;;;4.47;;
5742;SDS011;2896;53.500;10.020;2023-11-21T13:30:48;15.63;;;4.77;;
5742;SDS011;2896;53.500;10.020;2023-11-21T13:33:17;4.73;;;4.37;;
5742;SDS011;2896;53.500;10.020;2023-11-21T13:35:46;5.07;;;4.67;;
5742;SDS011;2896;53.500;10.020;2023-11-21T13:38:16;5.03;;;4.73;;
5742;SDS011;2896;53.500;10.020;2023-11-21T13:40:48;4.80;;;4.40;;
5742;SDS011;2896;53.500;10.020;2023-11-21T13:43:18;3.70;;;3.40;;
5742;SDS011;2896;53.500;10.020;2023-11-21T13:45:48;4.57;;;4.13;;
5742;SDS011;2896;53.500;10.020;2023-11-21T13:48:17;4.43;;;4.03;;
5742;SDS011;2896;53.500;10.020;2023-11-21T13:50:47;7.03;;;4.67;;
5742;SDS011;2896;53.500;10.020;2023-11-21T13:53:22;4.47;;;4.03;;
5742;SDS011;2896;53.500;10.020;2023-11-21T13:55:49;5.93;;;4.73;;
5742;SDS011;2896;53.500;10.020;2023-11-21T13:58:19;5.17;;;4.70;;
5742;SDS011;2896;53.500;10.020;2023-11-21T14:00:50;9.40;;;5.27;;
5742;SDS011;2896;53.500;10.020;2023-11-21T14:03:21;4.60;;;4.20;;
5742;SDS011;2896;53.500;10.020;2023-11-21T14:05:57;5.47;;;4.97;;
5742;SDS011;2896;53.500;10.020;2023-11-21T14:08:25;5.10;;;4.60;;
5742;SDS011;2896;53.500;10.020;2023-11-21T14:10:53;6.63;;;4.67;;
5742;SDS011;2896;53.500;10.020;2023-11-21T14:13:22;6.47;;;4.43;;
5742;SDS011;2896;53.500;10.020;2023-11-21T14:15:51;4.60;;;4.30;;
5742;SDS011;2896;53.500;10.020;2023-11-21T14:18:24;8.10;;;4.37;;
5742;SDS011;2896;53.500;10.020;2023-11-21T14:20:55;4.00;;;3.70;;
5742;SDS011;2896;53.500;10.020;2023-11-21T14:23:22;4.37;;;4.03;;
5742;SDS011;2896;53.500;10.020;2023-11-21T14:25:49;4.50;;;3.77;;
5742;SDS011;2896;53.500;10.020;2023-11-21T14:28:15;5.97;;;4.93;;
5742;SDS011;2896;53.500;10.020;2023-11-21T14:30:42;4.30;;;4.00;;
5742;SDS011;2896;53.500;10.020;2023-11-21T14:33:10;6.90;;;4.60;;
5742;SDS011;2896;53.500;10.020;2023-11-21T14:35:37;4.30;;;3.90;;
5742;SDS011;2896;53.500;10.020;2023-11-21T14:38:03;3.90;;;3.40;;
5742;SDS011;2896;53.500;10.020;2023-11-21T14:40:31;6.43;;;3.90;;
5742;SDS011;2896;53.500;10.020;2023-11-21T14:43:00;4.77;;;4.37;;
5742;SDS011;2896;53.500;10.020;2023-11-21T14:45:27;5.57;;;5.10;;
5742;SDS011;2896;53.500;10.020;2023-11-21T14:47:55;6.37;;;5.03;;
5742;SDS011;2896;53.500;10.020;2023-11-21T14:50:32;3.70;;;3.40;;
5742;SDS011;2896;53.500;10.020;2023-11-21T14:53:15;4.73;;;4.30;;
5742;SDS011;2896;53.500;10.020;2023-11-21T14:55:48;3.93;;;3.67;;
5742;SDS011;2896;53.500;10.020;2023-11-21T14:58:22;4.37;;;3.97;;
5742;SDS011;2896;53.500;10.020;2023-11-21T15:00:52;3.90;;;3.70;;
5742;SDS011;2896;53.500;10.020;2023-11-21T15:03:23;14.43;;;3.53;;